Currently 63°F in Fallbrook, California, USA
63°F
63°F / 61°F
calm
0.00"
Sunday, June 24, 2018 8:09 AM PDT

Fallbrook, California Weather Summary
Last 36 Hours

Temperature Winds Hourly Humidity Dewpoint
Time Report Norm Report Norm Max Gusts Precip. Rpt. Norm Rpt. Norm Pressure
1,2Sun 08:09 AM  63.4°F  63°F  calm  calm  none  0.00"  95%  93%  62°F  61°F  29.94"
Sun 08:00 AM  63.0°F  63°F  calm  calm  none  0.00"  95%  94%  62°F  61°F  29.94"
Sun 07:00 AM  62.3°F  61°F  calm  calm  none  0.00"  97%  96%  61°F  60°F  29.91"
Sun 06:00 AM  61.9°F  60°F  calm  calm  none  0.00"  98%  97%  61°F  59°F  29.91"
Sun 05:00 AM  61.6°F  60°F  calm  calm  none  0.00"  98%  97%  61°F  59°F  29.89"
Sun 04:00 AM  61.3°F  61°F  calm  calm  none  0.00"  98%  97%  61°F  60°F  29.88"
3Sun 03:46 AM  61.2°F  61°F  calm  calm  none  ----  98%  97%  61°F  60°F  29.88"
Sun 03:00 AM  61.5°F  61°F  calm  calm  none  0.00"  98%  97%  61°F  60°F  29.87"
Sun 02:00 AM  61.5°F  61°F  calm  calm  none  0.00"  98%  97%  61°F  60°F  29.87"
Sun 01:00 AM  61.6°F  61°F  calm  calm  none  0.00"  98%  97%  61°F  61°F  29.88"
Sun 12:00 AM  62.0°F  62°F  calm  calm  none  0.00"  97%  97%  61°F  61°F  29.89"
Sat 11:00 PM  62.2°F  62°F  calm  calm  none  0.00"  97%  96%  61°F  61°F  29.89"
Sat 10:00 PM  62.3°F  63°F  calm  calm  none  0.00"  96%  95%  61°F  61°F  29.88"
Sat 09:00 PM  62.3°F  64°F  calm  calm  5 mph  0.00"  95%  92%  61°F  61°F  29.87"
Sat 08:00 PM  63.1°F  67°F  3 mph SW  1 mph  6 mph  0.00"  92%  84%  61°F  62°F  29.86"
Sat 07:00 PM  64.8°F  71°F  calm  3 mph  7 mph  0.00"  87%  74%  61°F  62°F  29.85"
Sat 06:00 PM  65.8°F  74°F  3 mph SW  4 mph  9 mph  0.00"  85%  65%  61°F  61°F  29.85"
Sat 05:00 PM  67.7°F  77°F  3 mph W  5 mph  10 mph  0.00"  81%  60%  62°F  61°F  29.86"
Sat 04:00 PM  69.1°F  79°F  4 mph S  6 mph  12 mph  0.00"  78%  56%  62°F  61°F  29.87"
Sat 03:00 PM  73.6°F  80°F  7 mph SW  5 mph  10 mph  0.00"  69%  53%  62°F  61°F  29.88"
Sat 02:00 PM  73.8°F  81°F  4 mph SW  6 mph  13 mph  0.00"  69%  52%  63°F  61°F  29.88"
Sat 01:00 PM  73.2°F  81°F  2 mph SW  5 mph  11 mph  0.00"  71%  53%  63°F  61°F  29.88"
Sat 12:00 PM  71.9°F  80°F  5 mph S  4 mph  10 mph  0.00"  75%  56%  63°F  62°F  29.88"
Sat 11:00 AM  70.4°F  76°F  4 mph SW  3 mph  10 mph  0.00"  81%  65%  64°F  63°F  29.88"
Sat 10:00 AM  69.0°F  71°F  2 mph S  2 mph  6 mph  0.00"  86%  77%  64°F  63°F  29.87"
Sat 09:00 AM  65.3°F  66°F  calm  1 mph  2 mph  0.00"  96%  87%  64°F  62°F  29.86"
Sat 08:00 AM  63.7°F  63°F  calm  calm  none  0.00"  99%  93%  63°F  61°F  29.85"
Sat 07:00 AM  62.7°F  61°F  calm  calm  none  0.00"  100%  96%  63°F  60°F  29.83"
Sat 06:00 AM  62.6°F  60°F  calm  calm  3 mph  0.00"  100%  97%  63°F  59°F  29.83"
Sat 05:00 AM  62.7°F  60°F  calm  calm  none  0.00"  100%  97%  63°F  59°F  29.81"
Sat 04:00 AM  63.0°F  60°F  calm  calm  none  0.00"  100%  97%  63°F  60°F  29.82"
Sat 03:00 AM  63.2°F  61°F  calm  calm  none  0.00"  100%  97%  63°F  60°F  29.81"
Sat 02:00 AM  63.5°F  61°F  calm  calm  none  0.00"  100%  97%  64°F  60°F  29.82"
Sat 01:00 AM  63.6°F  61°F  calm  calm  1 mph  0.00"  100%  97%  64°F  60°F  29.84"
Sat 12:00 AM  63.8°F  61°F  calm  calm  none  0.00"  100%  97%  64°F  60°F  29.84"
Fri 11:00 PM  64.2°F  62°F  calm  calm  none  0.00"  100%  96%  64°F  61°F  29.85"
Fri 10:00 PM  64.2°F  62°F  calm  calm  none  0.00"  100%  95%  64°F  61°F  29.85"
Fri 09:00 PM  64.6°F  64°F  calm  calm  4 mph  0.00"  100%  92%  65°F  61°F  29.84"

  1. Current weather data. No green row appears if the current weather data is also the high or low for the current day.
  2. High temperature for the current day.
  3. Low temperature for the current day.

The Fallbrook weather pages are a service of WeatherCurrents. Fallbrook, California is located in northern San Diego County, close to I15 and Camp Pendleton, and is home to ranches, avocado and citrus groves, and plant nurseries.
Copyright ©Sun Jun 24 08:09:49 PDT 2018  WeatherCurrents. All rights reserved. - Submit questions and comments - Privacy Policy

This page automatically refreshes every 10 minutes.